Terminal Aerodrome Forecast
Issued by NWS Louisville, KY

Home | Current Version | Previous Version | Text Only | Print | Product List | Glossary On
Versions: 1 2 3 4 5 6 7 8 9 10 11 12 13 14 15 16
000
FTUS43 KLMK 172338
TAFSDF
TAF
KSDF 172338Z 1800/1906 VRB04KT P6SM FEW250
     FM180400 07005KT P6SM BKN060
     FM180900 12006KT P6SM BKN060
     FM181600 21014G25KT P6SM BKN040
     FM182100 23017G29KT P6SM VCSH BKN035
     FM182300 26019G26KT P6SM BKN035
     FM190100 27017KT P6SM BKN050=

USA.gov is the U.S. government's official web portal to all federal, state and local government web resources and services.